| time (UTC) | temp F | wind direction | speed knots | gust knots | rain 1hr in | rain 24hr in | rain mn in | humidity % | barometer mb |
| 20260505152647 | 75 | 103 | 2.6 | 11.3 | 0.00 | 0.00 | 0.00 | 55 | 1010.6 |
| 20260505151127 | 74 | 130 | 0.0 | 7.8 | 0.00 | 0.00 | 0.00 | 56 | 1010.6 |
| 20260505124132 | 61 | 145 | 0.0 | 1.7 | 0.00 | 0.00 | 0.00 | 80 | 1010.6 |
| 20260505122624 | 60 | 213 | 0.0 | 1.7 | 0.00 | 0.00 | 0.00 | 82 | 1010.8 |
| 20260505121208 | 59 | 213 | 0.0 | 0.9 | 0.00 | 0.00 | 0.00 | 85 | 1010.9 |
| 20260505115639 | 58 | 213 | 0.0 | 3.5 | 0.00 | 0.00 | 0.00 | 86 | 1011.0 |
| 20260505114155 | 57 | 221 | 0.0 | 0.0 | 0.00 | 0.00 | 0.00 | 88 | 1011.0 |
| 20260505112624 | 56 | 221 | 0.0 | 1.7 | 0.00 | 0.00 | 0.00 | 89 | 1010.9 |
| 20260505111122 | 55 | 221 | 0.0 | 0.0 | 0.00 | 0.00 | 0.00 | 91 | 1011.1 |
| 20260505101127 | 53 | 221 | 0.0 | 0.0 | 0.00 | 0.00 | 0.00 | 83 | 1010.9 |
| 20260505095645 | 53 | 221 | 0.0 | 0.0 | 0.00 | 0.00 | 0.00 | 82 | 1010.5 |
| 20260505094200 | 53 | 221 | 0.0 | 0.0 | 0.00 | 0.00 | 0.00 | 81 | 1010.1 |
| 20260505092632 | 53 | 221 | 0.0 | 0.0 | 0.00 | 0.00 | 0.00 | 79 | 1010.1 |
| 20260505091147 | 54 | 221 | 0.0 | 0.0 | 0.00 | 0.00 | 0.00 | 79 | 1010.0 |
| 20260505085643 | 54 | 221 | 0.0 | 0.0 | 0.00 | 0.00 | 0.00 | 78 | 1010.1 |
| 20260505084140 | 54 | 221 | 0.0 | 0.0 | 0.00 | 0.00 | 0.00 | 78 | 1010.0 |
| 20260505082632 | 55 | 221 | 0.0 | 0.0 | 0.00 | 0.00 | 0.00 | 77 | 1010.1 |
| 20260505081148 | 55 | 221 | 0.0 | 0.0 | 0.00 | 0.00 | 0.00 | 76 | 1010.1 |
| 20260505075643 | 55 | 221 | 0.0 | 0.0 | 0.00 | 0.00 | 0.00 | 75 | 1010.2 |
| 20260505074131 | 56 | 221 | 0.0 | 0.0 | 0.00 | 0.00 | 0.00 | 74 | 1010.0 |
| 20260505072627 | 56 | 221 | 0.0 | 0.0 | 0.00 | 0.00 | 0.00 | 72 | 1010.1 |
| 20260505071144 | 57 | 221 | 0.0 | 0.0 | 0.00 | 0.00 | 0.00 | 71 | 1010.0 |
| 20260505065635 | 57 | 221 | 0.0 | 0.0 | 0.00 | 0.00 | 0.00 | 69 | 1009.9 |
| 20260505064132 | 58 | 221 | 0.0 | 0.0 | 0.00 | 0.00 | 0.00 | 69 | 1010.1 |
| 20260505062622 | 58 | 221 | 0.0 | 0.0 | 0.00 | 0.00 | 0.00 | 68 | 1010.1 |
| 20260505061124 | 59 | 221 | 0.0 | 0.0 | 0.00 | 0.00 | 0.00 | 68 | 1010.2 |
| 20260505055642 | 59 | 221 | 0.0 | 0.0 | 0.00 | 0.00 | 0.00 | 68 | 1010.2 |
| 20260505054129 | 59 | 221 | 0.0 | 0.0 | 0.00 | 0.00 | 0.00 | 68 | 1010.3 |
| 20260505052644 | 59 | 221 | 0.0 | 0.9 | 0.00 | 0.00 | 0.00 | 68 | 1010.4 |
| 20260505051140 | 60 | 221 | 0.0 | 0.0 | 0.00 | 0.00 | 0.00 | 66 | 1010.5 |
| 20260505041121 | 61 | 221 | 0.0 | 0.9 | 0.00 | 0.00 | 0.00 | 63 | 1010.7 |
| 20260505035653 | 61 | 221 | 0.0 | 0.9 | 0.00 | 0.00 | 0.00 | 62 | 1010.7 |
| 20260505034130 | 61 | 222 | 0.0 | 1.7 | 0.00 | 0.00 | 0.00 | 62 | 1010.8 |
| 20260505032626 | 61 | 222 | 0.0 | 2.6 | 0.00 | 0.00 | 0.00 | 61 | 1010.8 |
| 20260505031124 | 61 | 225 | 0.0 | 0.9 | 0.00 | 0.00 | 0.00 | 61 | 1010.8 |
| 20260505025636 | 61 | 225 | 0.0 | 2.6 | 0.00 | 0.00 | 0.00 | 61 | 1010.7 |
| 20260505024132 | 61 | 225 | 0.0 | 0.9 | 0.00 | 0.00 | 0.00 | 61 | 1010.8 |
| 20260505022640 | 61 | 225 | 0.0 | 2.6 | 0.00 | 0.00 | 0.00 | 62 | 1010.8 |
| 20260505021121 | 61 | 225 | 0.0 | 0.9 | 0.00 | 0.00 | 0.00 | 62 | 1010.9 |
| 20260505015634 | 61 | 225 | 0.0 | 2.6 | 0.00 | 0.00 | 0.00 | 62 | 1010.8 |
| 20260505014131 | 61 | 225 | 0.9 | 2.6 | 0.00 | 0.00 | 0.00 | 62 | 1010.7 |
| 20260505012625 | 62 | 229 | 0.0 | 0.9 | 0.00 | 0.00 | 0.00 | 62 | 1010.7 |
| 20260505011123 | 62 | 229 | 0.0 | 0.0 | 0.00 | 0.00 | 0.00 | 61 | 1010.4 |
| 20260505005643 | 63 | 229 | 0.0 | 0.0 | 0.00 | 0.00 | 0.00 | 60 | 1010.1 |
| 20260505004131 | 64 | 229 | 0.0 | 0.0 | 0.00 | 0.00 | 0.00 | 59 | 1009.9 |
| 20260505002625 | 65 | 229 | 0.0 | 3.5 | 0.00 | 0.00 | 0.00 | 59 | 1009.6 |
| 20260505001123 | 66 | 230 | 0.0 | 0.0 | 0.00 | 0.00 | 0.00 | 57 | 1009.3 |
| 20260504235642 | 68 | 230 | 0.0 | 1.7 | 0.00 | 0.00 | 0.00 | 55 | 1009.0 |
| 20260504234158 | 69 | 230 | 0.0 | 0.0 | 0.00 | 0.00 | 0.00 | 52 | 1008.9 |
| 20260504232628 | 70 | 232 | 0.0 | 1.7 | 0.00 | 0.00 | 0.00 | 49 | 1008.6 |
| 20260504231146 | 71 | 238 | 0.0 | 3.5 | 0.00 | 0.00 | 0.00 | 41 | 1008.4 |
| 20260504225637 | 71 | 236 | 0.0 | 2.6 | 0.00 | 0.00 | 0.00 | 40 | 1008.3 |
| 20260504224137 | 71 | 236 | 0.0 | 7.8 | 0.00 | 0.00 | 0.00 | 39 | 1008.3 |
| 20260504222631 | 72 | 226 | 0.9 | 2.6 | 0.00 | 0.00 | 0.00 | 38 | 1008.3 |
| 20260504221127 | 72 | 227 | 0.0 | 6.1 | 0.00 | 0.00 | 0.00 | 37 | 1008.4 |
| 20260504215658 | 72 | 182 | 0.0 | 7.0 | 0.00 | 0.00 | 0.00 | 38 | 1008.6 |